Time;durP1;ratioP1;P1;durP2;ratioP2;P2;SDS_P1;SDS_P2;PMS_P1;PMS_P2;Temp;Humidity;BMP_temperature;BMP_pressure;BME280_temperature;BME280_humidity;BME280_pressure;Samples;Min_cycle;Max_cycle;Signal;HPM_P1;HPM_P2
2021/07/25 00:01:47;;;;;;;21.10;15.15;;;19.10;99.90;;;;;;5116502;28;20078;-83
2021/07/25 00:04:15;;;;;;;24.63;15.13;;;19.10;99.90;;;;;;5116140;28;20047;-83
2021/07/25 00:06:41;;;;;;;21.25;16.17;;;19.00;99.90;;;;;;5116708;28;20040;-83
2021/07/25 00:09:08;;;;;;;23.17;15.57;;;19.00;99.90;;;;;;5133043;28;20165;-83
2021/07/25 00:11:35;;;;;;;23.58;16.52;;;19.00;99.90;;;;;;5116511;28;20520;-83
2021/07/25 00:14:04;;;;;;;23.08;16.33;;;19.00;99.90;;;;;;5149720;28;20031;-83
2021/07/25 00:16:32;;;;;;;24.75;16.38;;;18.90;99.90;;;;;;5117147;28;20036;-83
2021/07/25 00:18:59;;;;;;;24.20;16.77;;;19.00;99.90;;;;;;5133015;28;20476;-84
2021/07/25 00:21:26;;;;;;;22.20;17.02;;;19.00;99.90;;;;;;5149819;28;20035;-83
2021/07/25 00:23:55;;;;;;;27.05;18.02;;;19.00;99.90;;;;;;5132226;28;20047;-84
2021/07/25 00:26:25;;;;;;;24.70;17.88;;;18.90;99.90;;;;;;5133138;28;20036;-83
2021/07/25 00:28:52;;;;;;;25.27;18.20;;;19.00;99.90;;;;;;5133643;28;20032;-84
2021/07/25 00:31:19;;;;;;;27.83;17.70;;;18.90;99.90;;;;;;5149531;28;20088;-84
2021/07/25 00:33:48;;;;;;;26.35;17.70;;;18.90;99.90;;;;;;5133164;28;20028;-85
2021/07/25 00:36:15;;;;;;;25.58;18.13;;;18.90;99.90;;;;;;5132991;28;20042;-82
2021/07/25 00:38:42;;;;;;;23.52;17.75;;;18.90;99.90;;;;;;5116379;28;20031;-84
2021/07/25 00:41:15;;;;;;;25.38;18.40;;;18.90;99.90;;;;;;5132670;28;20135;-84
2021/07/25 00:43:46;;;;;;;26.27;18.42;;;18.90;99.90;;;;;;5150139;28;20063;-85
2021/07/25 00:46:14;;;;;;;25.75;18.75;;;18.90;99.90;;;;;;5149397;28;20081;-84
2021/07/25 00:48:43;;;;;;;30.92;19.92;;;18.90;99.90;;;;;;5149780;28;20032;-84
2021/07/25 00:51:10;;;;;;;27.52;19.05;;;18.80;99.90;;;;;;5132346;28;20031;-84
2021/07/25 00:53:39;;;;;;;26.17;19.90;;;18.90;99.90;;;;;;5132550;28;20048;-84
2021/07/25 00:56:08;;;;;;;27.75;19.23;;;18.90;99.90;;;;;;5149474;28;20411;-83
2021/07/25 00:58:39;;;;;;;24.38;19.02;;;18.80;99.90;;;;;;5149704;28;20034;-83
2021/07/25 01:01:08;;;;;;;23.45;18.08;;;18.90;99.90;;;;;;5148703;28;20440;-84
2021/07/25 01:03:40;;;;;;;31.35;19.80;;;18.90;99.90;;;;;;5132725;28;20492;-83
2021/07/25 01:06:10;;;;;;;25.08;19.38;;;18.90;99.90;;;;;;5131929;28;20054;-84
2021/07/25 01:08:47;;;;;;;22.48;19.10;;;18.90;99.90;;;;;;5149331;28;20063;-83
2021/07/25 01:11:14;;;;;;;25.08;17.95;;;18.90;99.90;;;;;;5148692;28;20039;-82
2021/07/25 01:13:45;;;;;;;24.80;19.02;;;18.90;99.90;;;;;;5148813;28;20404;-83
2021/07/25 01:16:12;;;;;;;31.98;20.27;;;18.90;99.90;;;;;;5148190;28;20034;-83
2021/07/25 01:18:49;;;;;;;24.95;19.40;;;18.90;99.90;;;;;;5132015;28;20396;-83
2021/07/25 01:21:19;;;;;;;28.67;19.25;;;18.90;99.90;;;;;;5148414;28;20080;-83
2021/07/25 01:23:48;;;;;;;25.95;19.58;;;18.90;99.90;;;;;;5148857;28;20130;-84
2021/07/25 01:26:20;;;;;;;25.70;17.52;;;18.90;99.90;;;;;;5148441;28;20472;-83
2021/07/25 01:28:49;;;;;;;27.42;19.27;;;18.90;99.90;;;;;;5148898;28;20041;-83
2021/07/25 01:31:20;;;;;;;27.63;19.77;;;18.90;99.90;;;;;;5148470;28;20038;-84
2021/07/25 01:33:50;;;;;;;24.10;18.60;;;18.90;99.90;;;;;;5148244;28;20042;-83
2021/07/25 01:36:17;;;;;;;27.83;20.25;;;18.90;99.90;;;;;;5130572;28;20058;-83
2021/07/25 01:38:44;;;;;;;27.42;19.33;;;18.90;99.90;;;;;;5148593;28;20066;-83
2021/07/25 01:41:15;;;;;;;23.42;19.02;;;18.90;99.90;;;;;;5131109;28;20044;-83
2021/07/25 01:43:46;;;;;;;28.85;19.45;;;18.90;99.90;;;;;;5131959;28;20480;-83
2021/07/25 01:46:13;;;;;;;29.17;21.15;;;18.90;99.90;;;;;;5147958;28;20040;-83
2021/07/25 01:48:44;;;;;;;34.63;19.90;;;19.00;99.90;;;;;;5148438;28;20036;-83
2021/07/25 01:51:13;;;;;;;33.22;19.48;;;19.00;99.90;;;;;;5147962;28;20032;-84
2021/07/25 01:53:40;;;;;;;26.85;19.48;;;19.00;99.90;;;;;;5148189;28;20040;-83
2021/07/25 01:56:07;;;;;;;23.08;20.45;;;19.00;99.90;;;;;;5149268;27;20039;-84
2021/07/25 01:58:34;;;;;;;31.85;20.50;;;19.00;99.90;;;;;;5130888;28;20035;-83
2021/07/25 02:01:01;;;;;;;27.48;20.10;;;19.00;99.90;;;;;;5114311;28;20036;-83
2021/07/25 02:03:30;;;;;;;26.52;19.55;;;19.00;99.90;;;;;;5130670;28;20031;-83
2021/07/25 02:05:57;;;;;;;25.88;19.25;;;19.00;99.90;;;;;;5131559;28;20028;-83
2021/07/25 02:08:24;;;;;;;26.20;19.70;;;19.00;99.90;;;;;;5113496;28;20034;-83
2021/07/25 02:10:52;;;;;;;24.80;20.48;;;19.00;99.90;;;;;;5114239;28;20035;-83
2021/07/25 02:13:22;;;;;;;29.75;21.23;;;19.00;99.90;;;;;;5147401;28;20058;-83
2021/07/25 02:15:50;;;;;;;26.17;19.65;;;19.00;99.90;;;;;;5147973;28;20035;-83
2021/07/25 02:18:17;;;;;;;28.52;20.15;;;19.00;99.90;;;;;;5130493;28;20072;-83
2021/07/25 02:20:44;;;;;;;36.28;23.70;;;19.00;99.90;;;;;;5147722;28;20040;-83
2021/07/25 02:23:11;;;;;;;33.80;23.23;;;19.00;99.90;;;;;;5114174;28;20395;-83
2021/07/25 02:25:38;;;;;;;38.05;23.23;;;19.00;99.90;;;;;;5130937;28;20108;-83
2021/07/25 02:28:06;;;;;;;43.47;23.35;;;18.90;99.90;;;;;;5147637;28;20124;-83
2021/07/25 02:30:33;;;;;;;37.90;23.10;;;18.90;99.90;;;;;;5147267;28;20529;-83
2021/07/25 02:33:00;;;;;;;36.13;23.55;;;18.90;99.90;;;;;;5130634;28;20032;-83
2021/07/25 02:35:27;;;;;;;45.88;24.73;;;18.90;99.90;;;;;;5130054;28;20468;-83
2021/07/25 02:37:54;;;;;;;36.85;22.70;;;18.90;99.90;;;;;;5147531;28;20035;-83
2021/07/25 02:40:22;;;;;;;33.30;22.63;;;18.90;99.90;;;;;;5147074;28;20118;-83
2021/07/25 02:42:49;;;;;;;38.63;23.80;;;19.00;99.90;;;;;;5113709;28;20048;-83
2021/07/25 02:45:16;;;;;;;35.38;21.85;;;18.90;99.90;;;;;;5129713;28;20036;-83
2021/07/25 02:47:43;;;;;;;39.05;23.52;;;18.90;99.90;;;;;;5113645;28;20039;-82
2021/07/25 02:50:10;;;;;;;36.60;22.90;;;18.90;99.90;;;;;;5113466;28;20035;-82
2021/07/25 02:52:37;;;;;;;35.45;22.90;;;18.90;99.90;;;;;;5130012;28;20027;-83
2021/07/25 02:55:05;;;;;;;44.80;24.48;;;18.90;99.90;;;;;;5113410;28;20047;-82
2021/07/25 02:57:31;;;;;;;38.03;22.27;;;18.90;99.90;;;;;;5146859;28;20115;-83
2021/07/25 02:59:58;;;;;;;34.33;21.77;;;18.90;99.90;;;;;;5130523;28;20122;-82
2021/07/25 03:02:25;;;;;;;28.55;19.60;;;18.90;99.90;;;;;;5113530;28;20042;-83
2021/07/25 03:04:52;;;;;;;25.52;17.27;;;18.90;99.90;;;;;;5113743;28;20043;-83
2021/07/25 03:07:19;;;;;;;21.25;15.48;;;18.80;99.90;;;;;;5113245;28;20118;-83
2021/07/25 03:09:45;;;;;;;20.15;14.05;;;18.70;99.90;;;;;;5113610;28;20127;-83
2021/07/25 03:12:12;;;;;;;19.45;12.52;;;18.70;99.90;;;;;;5130451;28;20126;-83
2021/07/25 03:14:39;;;;;;;14.98;10.90;;;18.70;99.90;;;;;;5129830;28;20160;-83
2021/07/25 03:17:06;;;;;;;14.40;9.25;;;18.60;99.90;;;;;;5113543;28;20032;-82
2021/07/25 03:19:32;;;;;;;15.20;9.93;;;18.50;99.90;;;;;;5147833;28;20058;-83
2021/07/25 03:22:00;;;;;;;12.48;8.30;;;18.50;99.90;;;;;;5130209;28;20471;-82
2021/07/25 03:24:27;;;;;;;8.27;6.57;;;18.50;99.90;;;;;;5146574;28;20038;-83
2021/07/25 03:26:54;;;;;;;17.52;7.10;;;18.40;99.90;;;;;;5130136;28;20032;-83
2021/07/25 03:29:21;;;;;;;12.05;6.38;;;18.40;99.90;;;;;;5129669;28;20495;-83
2021/07/25 03:31:47;;;;;;;8.10;5.85;;;18.30;99.90;;;;;;5130736;28;20032;-83
2021/07/25 03:34:14;;;;;;;8.55;5.65;;;18.20;99.90;;;;;;5129905;28;20396;-83
2021/07/25 03:36:43;;;;;;;12.93;6.00;;;18.20;99.90;;;;;;5129744;28;20032;-82
2021/07/25 03:39:14;;;;;;;7.88;5.93;;;18.10;99.90;;;;;;5130676;28;20039;-83
2021/07/25 03:41:41;;;;;;;6.93;5.47;;;18.10;99.90;;;;;;5146362;28;20082;-83
2021/07/25 03:44:08;;;;;;;9.65;5.53;;;18.00;99.90;;;;;;5146730;28;20070;-83
2021/07/25 03:46:36;;;;;;;7.30;5.80;;;17.90;99.90;;;;;;5146084;28;20063;-82
2021/07/25 03:49:07;;;;;;;9.45;5.25;;;17.90;99.90;;;;;;5146101;28;20484;-83
2021/07/25 03:51:34;;;;;;;9.52;5.80;;;17.90;99.90;;;;;;5145631;28;20031;-83
2021/07/25 03:54:05;;;;;;;12.95;6.75;;;17.80;99.90;;;;;;5145497;28;20422;-83
2021/07/25 03:56:34;;;;;;;8.77;6.20;;;17.80;99.90;;;;;;5128772;28;20036;-85
2021/07/25 03:59:01;;;;;;;10.80;6.10;;;17.80;99.90;;;;;;5148270;28;20040;-83
2021/07/25 04:01:28;;;;;;;9.60;6.30;;;17.70;99.90;;;;;;5131847;28;20035;-83
2021/07/25 04:03:55;;;;;;;9.63;6.68;;;17.70;99.90;;;;;;5132536;28;20404;-83
2021/07/25 04:06:22;;;;;;;8.38;6.47;;;17.60;99.90;;;;;;5133385;28;20070;-83
2021/07/25 04:08:49;;;;;;;9.68;6.68;;;17.60;99.90;;;;;;5133824;28;20048;-83
2021/07/25 04:11:17;;;;;;;8.60;6.43;;;17.60;99.90;;;;;;5133060;28;20554;-84
2021/07/25 04:13:44;;;;;;;10.48;7.32;;;17.50;99.90;;;;;;5132631;28;20043;-84
2021/07/25 04:16:11;;;;;;;10.95;7.18;;;17.50;99.90;;;;;;5133368;28;20051;-84
2021/07/25 04:18:38;;;;;;;11.57;7.63;;;17.50;99.90;;;;;;5132544;28;20043;-84
2021/07/25 04:21:04;;;;;;;11.80;7.30;;;17.50;99.90;;;;;;5133091;28;20476;-83
2021/07/25 04:23:31;;;;;;;8.77;7.15;;;17.50;99.90;;;;;;5132633;28;20050;-83
2021/07/25 04:25:58;;;;;;;10.23;7.60;;;17.50;99.90;;;;;;5132917;28;20032;-83
2021/07/25 04:28:26;;;;;;;10.93;7.72;;;17.50;99.90;;;;;;5132582;28;20035;-82
2021/07/25 04:30:53;;;;;;;13.18;7.88;;;17.50;99.90;;;;;;5133005;28;20032;-83
2021/07/25 04:33:20;;;;;;;10.63;8.02;;;17.50;99.90;;;;;;5132681;28;20046;-82
2021/07/25 04:35:48;;;;;;;12.23;8.00;;;17.50;99.90;;;;;;5132543;28;20457;-83
2021/07/25 04:38:15;;;;;;;10.98;8.27;;;17.40;99.90;;;;;;5132768;28;20392;-83
2021/07/25 04:40:46;;;;;;;11.85;8.27;;;17.50;99.90;;;;;;5132125;28;20046;-83
2021/07/25 04:43:16;;;;;;;10.60;8.70;;;17.50;99.90;;;;;;5150711;28;20395;-83
2021/07/25 04:45:57;;;;;;;13.43;8.60;;;17.40;99.90;;;;;;5150206;28;20094;-84
2021/07/25 04:48:43;;;;;;;10.63;8.82;;;17.50;99.90;;;;;;5149382;28;20089;-82
2021/07/25 04:51:11;;;;;;;10.45;7.82;;;17.50;99.90;;;;;;5149839;28;20081;-83
2021/07/25 04:53:40;;;;;;;10.77;7.57;;;17.50;99.90;;;;;;5132069;28;20499;-83
2021/07/25 04:56:10;;;;;;;10.50;8.00;;;17.50;99.90;;;;;;5149425;28;20060;-83
2021/07/25 04:58:53;;;;;;;12.73;7.55;;;17.50;99.90;;;;;;5148893;28;20051;-83
2021/07/25 05:01:30;;;;;;;9.57;7.45;;;17.60;99.90;;;;;;5149454;28;20035;-84
2021/07/25 05:04:02;;;;;;;10.65;7.30;;;17.60;99.90;;;;;;5133077;28;20096;-83
2021/07/25 05:06:32;;;;;;;10.30;7.28;;;17.60;99.90;;;;;;5131923;28;20091;-84
2021/07/25 05:09:00;;;;;;;9.20;7.00;;;17.60;99.90;;;;;;5148826;28;20042;-84
2021/07/25 05:11:36;;;;;;;10.77;8.02;;;17.60;99.90;;;;;;5132196;28;20395;-83
2021/07/25 05:14:10;;;;;;;10.43;8.00;;;17.70;99.90;;;;;;5148994;28;20070;-84
2021/07/25 05:16:51;;;;;;;10.20;8.40;;;17.70;99.90;;;;;;5148496;28;20530;-84
2021/07/25 05:19:37;;;;;;;11.05;8.73;;;17.80;99.90;;;;;;5148949;28;20032;-83
2021/07/25 05:22:29;;;;;;;13.30;9.10;;;17.80;99.90;;;;;;5148816;28;20529;-83
2021/07/25 05:25:00;;;;;;;14.48;9.88;;;17.90;99.90;;;;;;5151780;27;20052;-84
2021/07/25 05:27:34;;;;;;;14.75;10.60;;;17.90;99.90;;;;;;5131772;28;20043;-83
2021/07/25 05:30:01;;;;;;;13.82;10.00;;;18.00;99.90;;;;;;5148808;28;20036;-85
2021/07/25 05:32:28;;;;;;;14.60;10.55;;;18.00;99.90;;;;;;5148660;28;20123;-84
2021/07/25 05:34:55;;;;;;;14.05;10.43;;;18.10;99.90;;;;;;5114319;28;20122;-84
2021/07/25 05:37:22;;;;;;;16.05;10.00;;;18.20;99.90;;;;;;5131618;28;20476;-84
2021/07/25 05:39:49;;;;;;;14.18;10.65;;;18.30;99.90;;;;;;5114440;28;20115;-83
2021/07/25 05:42:16;;;;;;;15.90;11.02;;;18.40;99.90;;;;;;5131171;28;20074;-83
2021/07/25 05:44:43;;;;;;;16.75;10.57;;;18.40;99.90;;;;;;5131180;28;20043;-84
2021/07/25 05:47:11;;;;;;;16.63;10.50;;;18.40;99.90;;;;;;5131627;28;20040;-83
2021/07/25 05:49:38;;;;;;;16.13;10.98;;;18.40;99.90;;;;;;5114075;28;20032;-83
2021/07/25 05:52:13;;;;;;;20.15;12.80;;;18.50;99.90;;;;;;5116782;28;20498;-83
2021/07/25 05:54:40;;;;;;;16.00;11.60;;;18.50;99.90;;;;;;5130669;28;20043;-83
2021/07/25 05:57:09;;;;;;;15.73;12.82;;;18.60;99.90;;;;;;5148119;28;20032;-83
2021/07/25 05:59:36;;;;;;;17.58;11.98;;;18.60;99.90;;;;;;5147746;28;20373;-83
2021/07/25 06:02:03;;;;;;;15.55;12.13;;;18.70;99.90;;;;;;5148182;28;20039;-84
2021/07/25 06:04:30;;;;;;;13.98;11.38;;;18.80;99.90;;;;;;5148206;28;20046;-84
2021/07/25 06:06:57;;;;;;;18.95;11.68;;;18.80;99.90;;;;;;5113756;28;20035;-84
2021/07/25 06:09:24;;;;;;;15.68;12.38;;;18.80;99.90;;;;;;5130921;28;20059;-83
2021/07/25 06:11:52;;;;;;;16.38;12.88;;;18.90;99.90;;;;;;5147431;28;20038;-83
2021/07/25 06:14:18;;;;;;;17.17;12.90;;;19.00;99.90;;;;;;5130862;28;20040;-83
2021/07/25 06:16:45;;;;;;;16.55;12.70;;;19.00;99.90;;;;;;5113679;28;20043;-84
2021/07/25 06:19:12;;;;;;;20.00;13.88;;;19.10;99.90;;;;;;5147569;28;20043;-83
2021/07/25 06:21:39;;;;;;;18.80;13.32;;;19.20;99.90;;;;;;5112957;28;20450;-83
2021/07/25 06:24:06;;;;;;;19.20;13.60;;;19.30;99.90;;;;;;5130930;28;20067;-84
2021/07/25 06:26:33;;;;;;;16.15;12.43;;;19.30;99.90;;;;;;5114167;28;20111;-83
2021/07/25 06:28:59;;;;;;;14.27;11.45;;;19.40;99.90;;;;;;5147255;28;20044;-84
2021/07/25 06:31:26;;;;;;;19.63;13.13;;;19.40;99.90;;;;;;5114169;28;20031;-84
2021/07/25 06:33:53;;;;;;;16.80;12.15;;;19.50;99.90;;;;;;5113401;28;20040;-84
2021/07/25 06:36:20;;;;;;;12.65;10.20;;;19.50;99.90;;;;;;5130541;28;20047;-83
2021/07/25 06:38:47;;;;;;;13.27;10.10;;;19.60;99.90;;;;;;5147103;28;20040;-84
2021/07/25 06:41:17;;;;;;;14.05;10.35;;;19.60;99.90;;;;;;5114623;28;20123;-84
2021/07/25 06:43:43;;;;;;;14.55;10.80;;;19.60;99.90;;;;;;5130061;28;20074;-83
2021/07/25 06:46:10;;;;;;;14.38;10.70;;;19.70;99.90;;;;;;5113930;28;20036;-84
2021/07/25 06:48:38;;;;;;;12.75;10.45;;;19.80;99.90;;;;;;5130651;28;20490;-84
2021/07/25 06:51:05;;;;;;;13.10;10.45;;;19.90;99.90;;;;;;5113312;28;20039;-83
2021/07/25 06:53:32;;;;;;;12.45;10.40;;;20.00;99.90;;;;;;5113881;28;20043;-84
2021/07/25 06:56:03;;;;;;;13.32;10.75;;;20.10;99.90;;;;;;5146986;28;20040;-84
2021/07/25 06:58:31;;;;;;;17.17;11.00;;;20.10;99.90;;;;;;5148743;28;20036;-85
2021/07/25 07:00:58;;;;;;;14.18;10.07;;;20.20;99.90;;;;;;5129856;28;20074;-84
2021/07/25 07:03:24;;;;;;;12.35;9.48;;;20.30;99.90;;;;;;5130382;28;20044;-84
2021/07/25 07:05:51;;;;;;;13.93;9.52;;;20.30;99.90;;;;;;5130111;28;20039;-85
2021/07/25 07:08:21;;;;;;;13.05;9.90;;;20.30;99.90;;;;;;5147411;28;20055;-84
2021/07/25 07:10:48;;;;;;;13.02;9.38;;;20.30;99.90;;;;;;5146888;28;20062;-84
2021/07/25 07:13:17;;;;;;;16.85;10.07;;;20.30;99.90;;;;;;5130695;28;20066;-84
2021/07/25 07:15:46;;;;;;;11.57;9.52;;;20.20;99.90;;;;;;5130072;28;20546;-84
2021/07/25 07:18:13;;;;;;;12.88;9.57;;;20.30;99.90;;;;;;5147387;28;20032;-85
2021/07/25 07:20:39;;;;;;;12.25;8.45;;;20.40;99.90;;;;;;5130725;28;20043;-84
2021/07/25 07:23:09;;;;;;;11.20;8.98;;;20.40;99.90;;;;;;5129561;28;20476;-85
2021/07/25 07:25:38;;;;;;;12.85;9.40;;;20.30;99.90;;;;;;5148496;28;20031;-85
2021/07/25 07:28:05;;;;;;;12.25;9.40;;;20.30;99.90;;;;;;5146835;28;20064;-84
2021/07/25 07:30:36;;;;;;;13.00;9.43;;;20.20;99.90;;;;;;5147732;28;20391;-84
2021/07/25 07:33:15;;;;;;;14.15;9.50;;;20.10;99.90;;;;;;5149431;28;20035;-84
2021/07/25 07:35:42;;;;;;;12.45;9.45;;;20.10;99.90;;;;;;5151378;28;20035;-85
2021/07/25 07:38:10;;;;;;;12.00;9.15;;;20.10;99.90;;;;;;5150843;28;20472;-83
2021/07/25 07:40:38;;;;;;;12.93;9.90;;;20.10;99.90;;;;;;5150880;28;20040;-84
2021/07/25 07:43:07;;;;;;;12.50;9.60;;;20.20;99.90;;;;;;5151040;28;20472;-83
2021/07/25 07:45:38;;;;;;;12.00;9.43;;;20.20;99.90;;;;;;5151518;28;20038;-83
2021/07/25 07:48:06;;;;;;;12.40;9.25;;;20.20;99.90;;;;;;5150154;28;20081;-84
2021/07/25 07:50:33;;;;;;;10.63;8.65;;;20.30;99.90;;;;;;5150736;28;20126;-85
2021/07/25 07:53:00;;;;;;;11.73;7.93;;;20.30;99.90;;;;;;5150294;28;20127;-83
2021/07/25 07:55:27;;;;;;;11.30;8.57;;;20.30;99.90;;;;;;5150727;28;20043;-84
2021/07/25 07:57:54;;;;;;;12.07;9.10;;;20.40;99.90;;;;;;5133462;28;20081;-83
2021/07/25 08:00:21;;;;;;;12.98;8.45;;;20.50;99.90;;;;;;5150850;28;20035;-83
2021/07/25 08:02:47;;;;;;;12.68;8.43;;;20.60;99.90;;;;;;5150484;28;20036;-83
2021/07/25 08:05:15;;;;;;;10.63;7.97;;;20.60;99.90;;;;;;5133268;28;20032;-84
2021/07/25 08:07:42;;;;;;;9.48;8.20;;;20.60;99.90;;;;;;5133712;28;20088;-83
2021/07/25 08:10:10;;;;;;;10.27;8.20;;;20.60;99.90;;;;;;5133138;28;20035;-84
2021/07/25 08:12:37;;;;;;;12.15;8.02;;;20.60;99.90;;;;;;5133599;28;20400;-84
2021/07/25 08:15:06;;;;;;;11.35;8.18;;;20.40;99.90;;;;;;5132891;28;20043;-83
2021/07/25 08:17:32;;;;;;;8.90;7.90;;;20.40;99.90;;;;;;5150326;28;20046;-83
2021/07/25 08:19:59;;;;;;;13.15;9.32;;;20.40;99.90;;;;;;5132913;28;20043;-83
2021/07/25 08:22:26;;;;;;;11.30;8.57;;;20.40;99.90;;;;;;5150490;28;20084;-83
2021/07/25 08:24:53;;;;;;;13.32;9.27;;;20.50;99.90;;;;;;5149837;28;20069;-83
2021/07/25 08:27:20;;;;;;;11.85;8.73;;;20.70;99.90;;;;;;5133224;28;20035;-82
2021/07/25 08:29:47;;;;;;;9.82;8.15;;;20.80;99.90;;;;;;5132825;28;20031;-83
2021/07/25 08:32:13;;;;;;;10.18;8.48;;;21.00;99.90;;;;;;5132885;28;20161;-83
2021/07/25 08:34:40;;;;;;;10.25;7.78;;;21.10;99.90;;;;;;5149953;28;20118;-83
2021/07/25 08:37:07;;;;;;;10.32;8.07;;;21.20;99.90;;;;;;5132789;28;20044;-83
2021/07/25 08:39:34;;;;;;;11.07;9.13;;;21.30;99.90;;;;;;5133159;28;20031;-83
2021/07/25 08:42:07;;;;;;;11.68;9.13;;;21.30;99.90;;;;;;5132403;28;20058;-82
2021/07/25 08:44:39;;;;;;;14.93;10.15;;;21.50;99.90;;;;;;5149590;28;20043;-82
2021/07/25 08:47:26;;;;;;;15.68;11.63;;;21.60;99.90;;;;;;5149854;28;20476;-83
2021/07/25 08:50:15;;;;;;;19.98;16.30;;;21.70;99.90;;;;;;5142540;28;20048;-83
2021/07/25 08:52:45;;;;;;;21.15;15.65;;;21.70;99.90;;;;;;5116064;28;20048;-83
2021/07/25 08:55:17;;;;;;;20.65;15.18;;;21.70;99.90;;;;;;5149117;28;20039;-83
2021/07/25 08:57:46;;;;;;;23.70;14.68;;;21.90;99.90;;;;;;5116017;28;20039;-83
2021/07/25 09:00:16;;;;;;;17.65;13.10;;;22.00;99.90;;;;;;5149456;28;20032;-83
2021/07/25 09:02:43;;;;;;;14.90;12.30;;;22.10;99.90;;;;;;5149643;28;20157;-83
2021/07/25 09:05:11;;;;;;;15.90;12.30;;;22.30;99.90;;;;;;5115285;28;20035;-84
2021/07/25 09:07:40;;;;;;;16.58;12.30;;;22.40;99.90;;;;;;5116074;28;20032;-83
2021/07/25 09:10:20;;;;;;;15.65;12.80;;;22.60;99.90;;;;;;5149014;28;20061;-83
2021/07/25 09:12:49;;;;;;;15.93;12.52;;;22.60;99.90;;;;;;5149609;28;20038;-83
2021/07/25 09:15:20;;;;;;;15.05;12.05;;;22.60;99.90;;;;;;5148942;28;20075;-82
2021/07/25 09:17:48;;;;;;;13.88;11.05;;;22.60;99.90;;;;;;5149498;28;20038;-83
2021/07/25 09:20:23;;;;;;;16.17;13.73;;;22.60;99.90;;;;;;5148931;28;20137;-83
2021/07/25 09:22:49;;;;;;;21.23;15.57;;;22.60;99.90;;;;;;5149358;28;20040;-82
2021/07/25 09:25:31;;;;;;;20.63;15.75;;;22.70;99.90;;;;;;5149093;28;20399;-83
2021/07/25 09:27:58;;;;;;;20.13;15.82;;;22.90;99.90;;;;;;5149197;28;20032;-84
2021/07/25 09:30:28;;;;;;;16.98;14.23;;;22.90;99.90;;;;;;5151077;28;20136;-83
2021/07/25 09:32:54;;;;;;;21.15;16.23;;;22.90;99.90;;;;;;5149129;28;20031;-83
2021/07/25 09:35:27;;;;;;;19.45;15.02;;;22.80;99.90;;;;;;5131341;28;20050;-82
2021/07/25 09:37:56;;;;;;;17.70;13.32;;;23.00;99.90;;;;;;5148882;28;20032;-83
2021/07/25 09:40:28;;;;;;;16.85;13.55;;;23.10;99.90;;;;;;5148367;28;20114;-83
2021/07/25 09:43:09;;;;;;;14.90;12.65;;;23.20;99.90;;;;;;5131822;28;20047;-83
2021/07/25 09:45:57;;;;;;;16.13;13.15;;;23.20;99.90;;;;;;5131634;28;20032;-83
2021/07/25 09:48:26;;;;;;;16.73;13.77;;;23.30;99.90;;;;;;5148397;28;20443;-82
2021/07/25 09:50:58;;;;;;;15.73;13.32;;;23.40;99.90;;;;;;5148150;28;20031;-84
2021/07/25 09:53:44;;;;;;;17.27;12.65;;;23.40;99.90;;;;;;5147621;28;20406;-83
2021/07/25 09:56:25;;;;;;;16.20;13.55;;;23.50;99.90;;;;;;5146942;28;20028;-82
2021/07/25 09:58:54;;;;;;;21.33;14.63;;;23.50;99.90;;;;;;5148343;28;20034;-83
2021/07/25 10:01:41;;;;;;;19.85;14.43;;;23.40;99.90;;;;;;5147492;28;20042;-82
2021/07/25 10:04:23;;;;;;;19.20;15.90;;;23.50;99.90;;;;;;5147803;28;20036;-83
2021/07/25 10:06:55;;;;;;;23.10;18.58;;;23.70;99.90;;;;;;5148331;28;20042;-83
2021/07/25 10:09:23;;;;;;;25.15;19.25;;;23.70;99.90;;;;;;5147883;28;20032;-83
2021/07/25 10:11:58;;;;;;;25.63;18.90;;;23.80;99.90;;;;;;5149067;28;20039;-83
2021/07/25 10:14:29;;;;;;;22.40;20.00;;;23.90;99.90;;;;;;5147170;28;20463;-83
2021/07/25 10:16:59;;;;;;;24.67;20.70;;;24.00;99.90;;;;;;5131192;28;20039;-83
2021/07/25 10:19:39;;;;;;;25.08;20.50;;;24.00;99.90;;;;;;5147254;28;20480;-84
2021/07/25 10:22:11;;;;;;;27.70;22.23;;;24.10;99.90;;;;;;5147547;28;20039;-83
2021/07/25 10:24:39;;;;;;;30.52;24.77;;;24.10;99.90;;;;;;5147943;28;20035;-83
2021/07/25 10:27:07;;;;;;;32.10;24.77;;;24.00;99.90;;;;;;5113906;28;20028;-83
2021/07/25 10:29:38;;;;;;;30.30;26.00;;;24.10;99.90;;;;;;5147885;28;20035;-83
2021/07/25 10:32:07;;;;;;;30.95;25.38;;;24.10;99.90;;;;;;5147555;28;20032;-83
2021/07/25 10:34:37;;;;;;;27.27;21.85;;;24.20;99.90;;;;;;5130873;28;20036;-83
2021/07/25 10:37:04;;;;;;;27.73;22.60;;;24.20;99.90;;;;;;5114785;28;20093;-83
2021/07/25 10:39:32;;;;;;;25.50;22.23;;;24.10;99.90;;;;;;5130753;28;20115;-82
2021/07/25 10:42:02;;;;;;;26.60;21.80;;;24.20;99.90;;;;;;5147541;28;20048;-83
2021/07/25 10:44:29;;;;;;;23.60;20.90;;;24.20;99.90;;;;;;5147399;28;20062;-83
2021/07/25 10:47:24;;;;;;;26.02;20.13;;;24.40;99.90;;;;;;5147735;28;20066;-82
2021/07/25 10:50:00;;;;;;;22.23;17.90;;;24.30;99.90;;;;;;5149087;28;20032;-82
2021/07/25 10:52:48;;;;;;;23.27;20.25;;;24.40;99.90;;;;;;5147263;28;20520;-83
2021/07/25 10:55:34;;;;;;;22.45;18.67;;;24.20;99.90;;;;;;5147326;28;20058;-83
2021/07/25 10:58:04;;;;;;;20.20;17.48;;;24.20;99.90;;;;;;5147800;28;20031;-83
2021/07/25 11:00:43;;;;;;;21.00;17.60;;;24.20;99.90;;;;;;5147499;28;20032;-83
2021/07/25 11:03:29;;;;;;;18.75;16.50;;;24.10;99.90;;;;;;5147283;28;20116;-83
2021/07/25 11:06:00;;;;;;;19.08;15.75;;;24.00;99.90;;;;;;5147597;28;20059;-83
2021/07/25 11:08:34;;;;;;;15.55;13.27;;;24.00;99.90;;;;;;5150424;28;20043;-83
2021/07/25 11:11:22;;;;;;;17.90;15.38;;;23.90;99.90;;;;;;5134915;28;20044;-83
2021/07/25 11:13:48;;;;;;;16.15;14.40;;;24.00;99.90;;;;;;5152777;28;20122;-83
2021/07/25 11:16:27;;;;;;;16.38;13.73;;;24.20;99.90;;;;;;5117241;28;20157;-83
2021/07/25 11:19:04;;;;;;;18.45;13.43;;;24.50;99.90;;;;;;5151532;28;20036;-83
2021/07/25 11:21:36;;;;;;;19.95;14.93;;;24.80;99.90;;;;;;5151183;28;20032;-83
2021/07/25 11:24:18;;;;;;;19.20;14.45;;;24.60;99.90;;;;;;5151502;28;20363;-83
2021/07/25 11:26:47;;;;;;;19.02;15.25;;;24.50;99.90;;;;;;5152077;28;20084;-83
2021/07/25 11:29:23;;;;;;;20.55;15.05;;;24.30;99.90;;;;;;5151264;28;20032;-83
2021/07/25 11:31:51;;;;;;;18.52;14.73;;;24.40;99.90;;;;;;5151400;28;20396;-83
2021/07/25 11:34:29;;;;;;;20.38;15.57;;;24.50;99.90;;;;;;5133982;28;20437;-83
2021/07/25 11:36:59;;;;;;;16.98;14.23;;;24.50;99.90;;;;;;5134168;28;20054;-82
2021/07/25 11:39:26;;;;;;;18.08;14.25;;;24.70;99.90;;;;;;5150874;28;20459;-82
2021/07/25 11:41:54;;;;;;;15.98;13.20;;;24.80;99.90;;;;;;5134362;28;20040;-82
2021/07/25 11:44:31;;;;;;;17.52;13.13;;;24.90;99.90;;;;;;5134021;28;20122;-83
2021/07/25 11:47:00;;;;;;;16.60;14.13;;;25.00;99.90;;;;;;5135440;28;20036;-83
2021/07/25 11:49:28;;;;;;;17.00;14.80;;;25.20;99.90;;;;;;5134131;28;20067;-83
2021/07/25 11:52:00;;;;;;;17.45;14.20;;;25.20;99.90;;;;;;5151485;28;20487;-83
2021/07/25 11:54:35;;;;;;;16.35;13.32;;;25.20;99.90;;;;;;5150424;28;20036;-83
2021/07/25 11:57:05;;;;;;;14.75;13.07;;;25.10;99.90;;;;;;5150837;28;20050;-83
2021/07/25 11:59:58;;;;;;;17.42;13.10;;;25.10;99.90;;;;;;5150512;28;20035;-83
2021/07/25 12:02:25;;;;;;;15.30;12.80;;;25.20;99.90;;;;;;5150405;28;20036;-83
2021/07/25 12:04:53;;;;;;;16.67;13.18;;;25.30;99.90;;;;;;5133699;28;20050;-83
2021/07/25 12:07:20;;;;;;;17.45;12.60;;;25.30;99.90;;;;;;5150427;28;20035;-83
2021/07/25 12:09:50;;;;;;;17.13;12.57;;;25.10;99.90;;;;;;5133665;28;20035;-84
2021/07/25 12:12:24;;;;;;;15.95;11.85;;;24.90;99.90;;;;;;5150065;28;20060;-84
2021/07/25 12:15:01;;;;;;;14.27;12.65;;;24.60;99.90;;;;;;5133591;28;20040;-84
2021/07/25 12:17:48;;;;;;;14.30;12.60;;;24.30;99.90;;;;;;5133054;28;20066;-84
2021/07/25 12:20:28;;;;;;;15.23;11.80;;;24.20;99.90;;;;;;5150971;28;20062;-83
2021/07/25 12:23:07;;;;;;;16.98;13.40;;;24.00;99.90;;;;;;5133745;28;20404;-83
2021/07/25 12:25:35;;;;;;;16.92;12.35;;;23.90;99.90;;;;;;5133211;28;20117;-83
2021/07/25 12:28:05;;;;;;;14.30;11.30;;;24.00;99.90;;;;;;5150947;28;20032;-83
2021/07/25 12:30:46;;;;;;;16.70;12.55;;;24.00;99.90;;;;;;5149994;28;20442;-83
2021/07/25 12:33:22;;;;;;;15.15;12.43;;;24.00;99.90;;;;;;5150337;28;20043;-84
2021/07/25 12:35:49;;;;;;;14.40;11.68;;;23.90;99.90;;;;;;5150315;28;20483;-84
2021/07/25 12:38:18;;;;;;;16.00;12.32;;;23.90;99.90;;;;;;5150076;28;20036;-83
2021/07/25 12:40:59;;;;;;;14.55;11.98;;;23.70;99.90;;;;;;5149420;28;20042;-84
2021/07/25 12:43:27;;;;;;;14.25;11.25;;;23.70;99.90;;;;;;5149296;28;20040;-84
2021/07/25 12:45:55;;;;;;;13.32;10.30;;;23.70;99.90;;;;;;5149398;28;20114;-84